createdAt,value
2017-11-23T00:02:03.271Z,63.35
2017-11-23T00:04:29.719Z,63.36
2017-11-23T00:06:56.662Z,64.06
2017-11-23T00:09:23.085Z,63.47
2017-11-23T00:11:49.472Z,63.50
2017-11-23T00:14:15.894Z,63.64
2017-11-23T00:16:42.294Z,63.59
2017-11-23T00:19:08.856Z,64.01
2017-11-23T00:21:35.270Z,63.23
2017-11-23T00:24:01.662Z,63.38
2017-11-23T00:26:28.143Z,63.36
2017-11-23T00:28:54.573Z,63.72
2017-11-23T00:31:20.986Z,63.27
2017-11-23T00:33:47.455Z,63.31
2017-11-23T00:36:13.866Z,63.69
2017-11-23T00:38:40.289Z,63.57
2017-11-23T00:41:06.858Z,63.31
2017-11-23T00:43:33.291Z,63.42
2017-11-23T00:45:59.828Z,63.43
2017-11-23T00:48:26.277Z,63.67
2017-11-23T00:50:52.713Z,63.70
2017-11-23T00:53:19.105Z,63.78
2017-11-23T00:55:45.561Z,63.62
2017-11-23T00:58:11.934Z,63.65
2017-11-23T01:00:38.324Z,64.10
2017-11-23T01:03:04.876Z,64.28
2017-11-23T01:05:31.337Z,64.57
2017-11-23T01:07:57.766Z,64.48
2017-11-23T01:10:24.263Z,64.22
2017-11-23T01:12:50.678Z,63.88
2017-11-23T01:15:17.117Z,63.28
2017-11-23T01:17:43.664Z,63.23
2017-11-23T01:20:10.105Z,63.24
2017-11-23T01:22:36.581Z,63.44
2017-11-23T01:25:03.177Z,64.11
2017-11-23T01:27:29.565Z,64.11
2017-11-23T01:29:55.916Z,64.47
2017-11-23T01:32:22.470Z,64.76
2017-11-23T01:34:49.107Z,64.25
2017-11-23T01:37:15.630Z,64.36
2017-11-23T01:39:42.237Z,64.74
2017-11-23T01:42:08.681Z,65.81
2017-11-23T01:44:35.095Z,66.79
2017-11-23T01:47:01.684Z,63.84
2017-11-23T01:49:28.218Z,63.42
2017-11-23T01:51:54.720Z,63.43
2017-11-23T01:54:21.273Z,63.93
2017-11-23T01:56:47.718Z,64.28
2017-11-23T01:59:14.362Z,64.55
2017-11-23T02:01:40.869Z,64.68
2017-11-23T02:04:07.364Z,64.66
2017-11-23T02:06:33.860Z,64.85
2017-11-23T02:09:00.337Z,65.20
2017-11-23T02:11:26.836Z,65.57
2017-11-23T02:13:53.354Z,65.58
2017-11-23T02:16:19.930Z,65.28
2017-11-23T02:18:46.544Z,65.07
2017-11-23T02:21:13.234Z,64.77
2017-11-23T02:23:39.717Z,64.53
2017-11-23T02:26:06.355Z,64.95
2017-11-23T02:28:32.827Z,65.09
2017-11-23T02:30:59.589Z,64.84
2017-11-23T02:33:26.167Z,65.49
2017-11-23T02:35:52.807Z,65.47
2017-11-23T02:38:19.344Z,65.38
2017-11-23T02:40:45.814Z,65.27
2017-11-23T02:43:12.394Z,64.82
2017-11-23T02:45:38.898Z,64.77
2017-11-23T02:48:05.358Z,65.11
2017-11-23T02:50:31.873Z,65.57
2017-11-23T02:52:58.405Z,65.81
2017-11-23T02:55:24.833Z,65.54
2017-11-23T02:57:51.373Z,65.56
2017-11-23T03:00:17.882Z,66.17
2017-11-23T03:02:44.364Z,65.10
2017-11-23T03:05:10.823Z,64.14
2017-11-23T03:07:37.309Z,63.84
2017-11-23T03:10:03.777Z,63.87
2017-11-23T03:12:30.298Z,63.83
2017-11-23T03:14:56.738Z,63.74
2017-11-23T03:17:23.145Z,64.05
2017-11-23T03:19:49.565Z,64.02
2017-11-23T03:22:15.960Z,64.03
2017-11-23T03:24:42.382Z,63.85
2017-11-23T03:27:08.758Z,64.10
2017-11-23T03:29:35.181Z,64.38
2017-11-23T03:32:01.606Z,64.45
2017-11-23T03:34:28.006Z,64.29
2017-11-23T03:36:54.485Z,63.92
2017-11-23T03:39:20.869Z,63.94
2017-11-23T03:41:47.301Z,63.84
2017-11-23T03:44:13.810Z,64.24
2017-11-23T03:46:40.246Z,64.15
2017-11-23T03:49:06.700Z,66.72
2017-11-23T03:51:33.132Z,65.00
2017-11-23T03:53:59.569Z,64.97
2017-11-23T03:56:25.978Z,64.49
2017-11-23T03:58:52.437Z,64.67
2017-11-23T04:01:18.821Z,65.18
2017-11-23T04:03:45.248Z,65.42
2017-11-23T04:06:11.638Z,65.36
2017-11-23T04:08:38.037Z,64.75
2017-11-23T04:11:04.503Z,64.70
2017-11-23T04:13:30.957Z,64.68
2017-11-23T04:15:57.357Z,64.96
2017-11-23T04:18:23.744Z,64.94
2017-11-23T04:20:50.190Z,64.71
2017-11-23T04:23:16.565Z,66.13
2017-11-23T04:25:42.977Z,64.46
2017-11-23T04:28:09.428Z,64.39
2017-11-23T04:30:35.850Z,64.21
2017-11-23T04:33:02.217Z,64.32
2017-11-23T04:35:28.673Z,64.15
2017-11-23T04:37:55.088Z,63.92
2017-11-23T04:40:21.494Z,64.25
2017-11-23T04:42:48.030Z,64.78
2017-11-23T04:45:14.485Z,64.43
2017-11-23T04:47:40.895Z,64.42
2017-11-23T04:50:07.322Z,64.27
2017-11-23T04:52:33.905Z,64.05
2017-11-23T04:55:00.249Z,64.69
2017-11-23T04:57:26.698Z,64.39
2017-11-23T04:59:53.117Z,63.95
2017-11-23T05:02:19.549Z,64.26
2017-11-23T05:04:45.977Z,65.28
2017-11-23T05:07:12.495Z,66.11
2017-11-23T05:09:38.978Z,68.60
2017-11-23T05:12:05.593Z,63.74
2017-11-23T05:14:31.976Z,63.92
2017-11-23T05:16:58.393Z,64.38
2017-11-23T05:19:24.865Z,62.90
2017-11-23T05:21:51.302Z,63.15
2017-11-23T05:24:17.721Z,63.11
2017-11-23T05:26:44.136Z,63.75
2017-11-23T05:29:10.549Z,63.55
2017-11-23T05:31:37.027Z,64.25
2017-11-23T05:34:03.465Z,64.15
2017-11-23T05:36:29.858Z,64.97
2017-11-23T05:38:56.321Z,63.80
2017-11-23T05:41:22.758Z,62.40
2017-11-23T05:43:49.145Z,62.71
2017-11-23T05:46:15.524Z,63.14
2017-11-23T05:48:41.921Z,63.26
2017-11-23T05:51:08.358Z,63.28
2017-11-23T05:53:34.721Z,63.72
2017-11-23T05:56:01.085Z,63.77
2017-11-23T05:58:27.460Z,64.16
2017-11-23T06:00:53.919Z,64.21
2017-11-23T06:03:20.410Z,63.97
2017-11-23T06:05:46.826Z,63.78
2017-11-23T06:08:13.255Z,63.69
2017-11-23T06:10:39.724Z,63.52
2017-11-23T06:13:06.136Z,63.34
2017-11-23T06:15:32.620Z,63.21
2017-11-23T06:17:59.161Z,63.53
2017-11-23T06:20:25.662Z,62.98
2017-11-23T06:22:52.102Z,63.44
2017-11-23T06:25:18.800Z,63.16
2017-11-23T06:27:45.213Z,62.88
2017-11-23T06:30:12.390Z,62.88
2017-11-23T06:32:39.241Z,62.89
2017-11-23T06:35:05.845Z,63.10
2017-11-23T06:37:32.227Z,62.90
2017-11-23T06:39:58.670Z,64.20
2017-11-23T06:42:25.117Z,62.87
2017-11-23T06:44:51.537Z,62.77
2017-11-23T06:47:17.945Z,63.24
2017-11-23T06:49:44.344Z,62.37
2017-11-23T06:52:10.736Z,65.59
2017-11-23T06:54:37.242Z,61.77
2017-11-23T06:57:03.840Z,61.80
2017-11-23T06:59:30.253Z,61.89
2017-11-23T07:01:56.647Z,62.53
2017-11-23T07:04:23.037Z,63.43
2017-11-23T07:06:49.409Z,62.48
2017-11-23T07:09:15.918Z,61.87
2017-11-23T07:11:42.338Z,61.58
2017-11-23T07:14:08.713Z,62.88
2017-11-23T07:16:35.116Z,66.35
2017-11-23T07:19:01.497Z,61.89
2017-11-23T07:21:27.905Z,61.53
2017-11-23T07:23:54.310Z,61.03
2017-11-23T07:26:20.678Z,61.68
2017-11-23T07:28:47.093Z,61.25
2017-11-23T07:31:13.590Z,60.68
2017-11-23T07:33:39.957Z,60.63
2017-11-23T07:36:06.331Z,60.83
2017-11-23T07:38:32.761Z,60.68
2017-11-23T07:40:59.128Z,60.92
2017-11-23T07:43:32.385Z,60.74
2017-11-23T07:45:58.833Z,61.51
2017-11-23T07:48:25.210Z,60.11
2017-11-23T07:50:51.610Z,60.94
2017-11-23T07:53:18.006Z,62.31
2017-11-23T07:55:44.375Z,61.20
2017-11-23T07:58:10.807Z,60.94
2017-11-23T08:00:37.239Z,61.11
2017-11-23T08:03:03.678Z,60.03
2017-11-23T08:05:30.051Z,60.29
2017-11-23T08:07:56.460Z,59.45
2017-11-23T08:10:22.890Z,59.79
2017-11-23T08:12:49.342Z,59.44
2017-11-23T08:15:15.867Z,59.85
2017-11-23T08:17:42.353Z,59.67
2017-11-23T08:20:08.757Z,59.48
2017-11-23T08:22:35.254Z,60.27
2017-11-23T08:25:01.679Z,59.53
2017-11-23T08:27:28.153Z,58.91
2017-11-23T08:29:54.785Z,58.88
2017-11-23T08:32:21.283Z,59.63
2017-11-23T08:34:47.665Z,58.97
2017-11-23T08:37:14.118Z,59.94
2017-11-23T08:39:40.453Z,58.51
2017-11-23T08:42:06.958Z,59.05
2017-11-23T08:44:33.376Z,58.47
2017-11-23T08:46:59.736Z,58.64
2017-11-23T08:49:26.110Z,58.35
2017-11-23T08:51:52.518Z,57.54
2017-11-23T08:54:18.978Z,57.62
2017-11-23T08:56:46.189Z,56.95
2017-11-23T08:59:12.663Z,54.71
2017-11-23T09:01:39.210Z,53.80
2017-11-23T09:04:08.549Z,52.06
2017-11-23T09:06:35.342Z,51.83
2017-11-23T09:09:01.844Z,51.35
2017-11-23T09:11:28.268Z,50.65
2017-11-23T09:13:54.745Z,50.64
2017-11-23T09:16:21.124Z,49.58
2017-11-23T09:18:47.538Z,49.54
2017-11-23T09:21:14.044Z,48.46
2017-11-23T09:23:40.404Z,48.68
2017-11-23T09:26:06.784Z,48.47
2017-11-23T09:28:33.258Z,48.81
2017-11-23T09:30:59.683Z,49.41
2017-11-23T09:33:26.211Z,49.83
2017-11-23T09:35:52.642Z,48.87
2017-11-23T09:38:19.049Z,49.93
2017-11-23T09:40:45.614Z,49.21
2017-11-23T09:43:12.129Z,50.05
2017-11-23T09:45:38.723Z,49.88
2017-11-23T09:48:05.137Z,50.15
2017-11-23T09:50:31.574Z,50.16
2017-11-23T09:52:57.958Z,50.65
2017-11-23T09:55:24.376Z,50.19
2017-11-23T09:57:50.809Z,49.01
2017-11-23T10:00:17.286Z,50.41
2017-11-23T10:02:43.633Z,51.69
2017-11-23T10:05:10.059Z,50.63
2017-11-23T10:07:36.409Z,48.23
2017-11-23T10:10:03.018Z,47.21
2017-11-23T10:12:29.424Z,46.52
2017-11-23T10:14:55.862Z,45.76
2017-11-23T10:17:22.437Z,45.35
2017-11-23T10:19:48.825Z,45.57
2017-11-23T10:22:15.353Z,45.29
2017-11-23T10:24:41.737Z,46.95
2017-11-23T10:27:08.138Z,46.46
2017-11-23T10:29:34.501Z,45.65
2017-11-23T10:32:00.904Z,45.22
2017-11-23T10:34:27.350Z,45.69
2017-11-23T10:36:53.784Z,45.86
2017-11-23T10:39:20.160Z,45.72
2017-11-23T10:41:46.597Z,45.12
2017-11-23T10:44:12.965Z,44.56
2017-11-23T10:46:39.389Z,44.50
2017-11-23T10:49:05.866Z,45.34
2017-11-23T10:51:32.211Z,44.62
2017-11-23T10:53:58.732Z,46.85
2017-11-23T10:56:26.390Z,45.54
2017-11-23T10:58:52.878Z,46.96
2017-11-23T11:01:19.273Z,45.48
2017-11-23T11:03:45.734Z,44.96
2017-11-23T11:06:12.114Z,45.07
2017-11-23T11:08:38.474Z,44.81
2017-11-23T11:11:04.929Z,46.17
2017-11-23T11:26:04.168Z,42.77
2017-11-23T11:28:36.737Z,43.06
2017-11-23T11:31:09.446Z,43.87
2017-11-23T11:33:42.202Z,44.81
2017-11-23T11:36:14.930Z,44.80
2017-11-23T11:38:47.485Z,44.49
2017-11-23T11:41:20.339Z,45.18
2017-11-23T11:43:52.824Z,45.08
2017-11-23T11:46:25.550Z,45.10
2017-11-23T11:48:58.235Z,45.49
2017-11-23T11:51:30.894Z,46.39
2017-11-23T11:54:03.634Z,46.92
2017-11-23T11:56:36.108Z,45.87
2017-11-23T11:59:08.774Z,46.48
2017-11-23T12:01:41.469Z,45.71
2017-11-23T12:04:14.014Z,45.87
2017-11-23T12:06:46.807Z,46.83
2017-11-23T12:09:19.542Z,45.01
2017-11-23T12:11:52.094Z,44.60
2017-11-23T12:14:26.729Z,45.10
2017-11-23T12:30:27.777Z,46.78
2017-11-23T12:33:00.527Z,45.57
2017-11-23T12:35:33.211Z,47.52
2017-11-23T12:38:05.865Z,46.23
2017-11-23T12:40:32.255Z,45.55
2017-11-23T12:42:59.014Z,45.82
2017-11-23T12:45:25.397Z,46.04
2017-11-23T12:47:51.758Z,46.24
2017-11-23T12:50:18.138Z,46.98
2017-11-23T12:52:44.795Z,45.75
2017-11-23T12:55:11.183Z,46.35
2017-11-23T12:57:37.594Z,46.35
2017-11-23T13:00:03.992Z,46.67
2017-11-23T13:02:30.410Z,46.60
2017-11-23T13:04:57.018Z,45.33
2017-11-23T13:07:23.430Z,47.51
2017-11-23T13:09:49.827Z,45.49
2017-11-23T13:12:16.233Z,45.32
2017-11-23T13:14:42.693Z,46.77
2017-11-23T13:17:09.248Z,46.80
2017-11-23T13:19:35.845Z,46.25
2017-11-23T13:22:02.581Z,48.16
2017-11-23T13:24:28.980Z,47.62
2017-11-23T13:26:55.456Z,47.15
2017-11-23T13:29:22.421Z,47.21
2017-11-23T13:31:48.906Z,47.95
2017-11-23T13:34:15.534Z,47.61
2017-11-23T13:36:42.026Z,47.72
2017-11-23T13:39:08.464Z,48.47
2017-11-23T13:41:34.870Z,47.86
2017-11-23T13:44:01.246Z,47.01
2017-11-23T13:46:27.606Z,46.67
2017-11-23T14:02:24.459Z,48.70
2017-11-23T14:04:50.864Z,49.13
2017-11-23T14:07:17.226Z,49.97
2017-11-23T14:09:43.661Z,50.94
2017-11-23T14:12:10.246Z,51.40
2017-11-23T14:14:36.626Z,51.46
2017-11-23T14:17:03.033Z,51.97
2017-11-23T14:19:29.417Z,52.55
2017-11-23T14:21:55.861Z,53.06
2017-11-23T14:24:22.557Z,53.05
2017-11-23T14:26:48.967Z,53.19
2017-11-23T14:29:15.409Z,53.99
2017-11-23T14:31:41.835Z,53.50
2017-11-23T14:34:08.197Z,54.42
2017-11-23T14:36:34.600Z,54.29
2017-11-23T14:39:01.011Z,54.50
2017-11-23T14:41:27.378Z,54.54
2017-11-23T14:43:53.816Z,54.36
2017-11-23T14:46:20.297Z,54.76
2017-11-23T14:48:46.767Z,54.90
2017-11-23T14:51:13.151Z,54.64
2017-11-23T14:53:39.573Z,55.19
2017-11-23T14:56:05.997Z,55.24
2017-11-23T14:58:32.373Z,55.60
2017-11-23T15:00:58.816Z,55.36
2017-11-23T15:03:25.306Z,56.03
2017-11-23T15:05:51.705Z,56.04
2017-11-23T15:08:18.338Z,55.46
2017-11-23T15:10:44.771Z,56.12
2017-11-23T15:13:12.077Z,56.69
2017-11-23T15:15:38.568Z,56.66
2017-11-23T15:18:05.125Z,56.62
2017-11-23T15:20:31.550Z,56.85
2017-11-23T15:22:58.018Z,57.12
2017-11-23T15:25:24.430Z,57.28
2017-11-23T15:27:50.854Z,57.35
2017-11-23T15:30:17.434Z,57.56
2017-11-23T15:32:43.973Z,58.09
2017-11-23T15:35:10.698Z,58.31
2017-11-23T15:37:37.335Z,58.29
2017-11-23T15:40:03.766Z,58.54
2017-11-23T15:42:30.132Z,58.42
2017-11-23T15:44:56.553Z,58.72
2017-11-23T15:47:23.346Z,58.76
2017-11-23T15:49:49.991Z,58.86
2017-11-23T15:52:16.641Z,58.93
2017-11-23T15:54:43.027Z,59.15
2017-11-23T15:57:09.402Z,59.11
2017-11-23T15:59:35.826Z,59.30
2017-11-23T16:02:02.377Z,59.66
2017-11-23T16:04:28.911Z,59.78
2017-11-23T16:06:55.348Z,59.57
2017-11-23T16:09:22.068Z,59.94
2017-11-23T16:11:48.575Z,60.20
2017-11-23T16:14:15.234Z,60.27
2017-11-23T16:16:41.625Z,60.54
2017-11-23T16:19:08.078Z,60.63
2017-11-23T16:21:34.596Z,60.79
2017-11-23T16:24:00.954Z,60.87
2017-11-23T16:26:27.306Z,61.08
2017-11-23T16:28:53.765Z,60.97
2017-11-23T16:31:20.217Z,61.03
2017-11-23T16:33:46.651Z,61.20
2017-11-23T16:36:15.091Z,61.42
2017-11-23T16:52:07.540Z,60.63
2017-11-23T16:54:39.996Z,60.47
2017-11-23T16:57:12.650Z,59.73
2017-11-23T16:59:40.027Z,59.36
2017-11-23T17:02:12.405Z,58.87
2017-11-23T17:04:45.254Z,59.78
2017-11-23T17:07:26.882Z,59.16
2017-11-23T17:10:00.016Z,59.13
2017-11-23T17:12:30.266Z,59.21
2017-11-23T17:15:02.821Z,59.41
2017-11-23T17:17:33.298Z,59.95
2017-11-23T17:19:59.852Z,60.12
2017-11-23T17:22:26.318Z,60.11
2017-11-23T17:24:52.689Z,60.19
2017-11-23T17:27:20.054Z,60.17
2017-11-23T17:29:46.483Z,60.33
2017-11-23T17:32:12.867Z,60.34
2017-11-23T17:34:39.376Z,60.37
2017-11-23T17:37:05.892Z,60.65
2017-11-23T17:39:32.287Z,60.65
2017-11-23T17:41:58.705Z,60.54
2017-11-23T17:44:25.110Z,60.71
2017-11-23T17:46:51.514Z,60.72
2017-11-23T17:49:17.979Z,60.86
2017-11-23T17:51:44.841Z,60.61
2017-11-23T17:54:11.274Z,60.59
2017-11-23T17:56:37.662Z,60.48
2017-11-23T17:59:04.102Z,60.49
2017-11-23T18:01:30.494Z,60.41
2017-11-23T18:03:57.018Z,61.42
2017-11-23T18:06:23.420Z,60.82
2017-11-23T18:08:50.056Z,60.99
2017-11-23T18:11:16.746Z,61.09
2017-11-23T18:13:43.283Z,61.13
2017-11-23T18:16:09.943Z,61.04
2017-11-23T18:18:37.834Z,61.16
2017-11-23T18:21:04.347Z,61.31
2017-11-23T18:23:30.736Z,61.13
2017-11-23T18:25:57.102Z,61.68
2017-11-23T18:28:23.594Z,61.75
2017-11-23T18:30:49.988Z,61.73
2017-11-23T18:35:50.625Z,61.87
2017-11-23T18:38:17.131Z,62.04
2017-11-23T18:40:43.503Z,62.02
2017-11-23T18:43:09.926Z,61.70
2017-11-23T18:45:37.206Z,61.42
2017-11-23T18:48:03.997Z,61.53
2017-11-23T18:50:30.486Z,61.68
2017-11-23T18:52:56.845Z,61.89
2017-11-23T18:55:23.812Z,61.74
2017-11-23T18:57:50.350Z,61.72
2017-11-23T19:00:17.110Z,62.97
2017-11-23T19:02:44.128Z,62.08
2017-11-23T19:05:10.545Z,61.84
2017-11-23T19:07:36.966Z,61.86
2017-11-23T19:10:03.536Z,61.81
2017-11-23T19:12:30.197Z,61.72
2017-11-23T19:14:58.502Z,62.15
2017-11-23T19:17:24.906Z,62.09
2017-11-23T19:19:51.354Z,62.08
2017-11-23T19:22:17.729Z,62.20
2017-11-23T19:24:44.245Z,62.30
2017-11-23T19:27:10.642Z,62.27
2017-11-23T19:29:37.995Z,62.54
2017-11-23T19:32:04.893Z,62.40
2017-11-23T19:34:31.307Z,62.73
2017-11-23T19:36:57.683Z,63.02
2017-11-23T19:39:24.066Z,63.04
2017-11-23T19:41:50.826Z,63.07
2017-11-23T19:44:19.195Z,63.19
2017-11-23T19:46:46.333Z,62.98
2017-11-23T19:49:12.926Z,63.02
2017-11-23T19:51:39.282Z,63.08
2017-11-23T19:54:05.806Z,62.86
2017-11-23T19:56:32.214Z,63.29
2017-11-23T19:58:58.590Z,63.48
2017-11-23T20:01:24.985Z,63.48
2017-11-23T20:03:51.436Z,63.76
2017-11-23T20:06:17.827Z,63.92
2017-11-23T20:08:45.034Z,63.62
2017-11-23T20:11:11.512Z,63.40
2017-11-23T20:13:37.933Z,63.33
2017-11-23T20:16:04.334Z,63.02
2017-11-23T20:18:30.962Z,63.12
2017-11-23T20:20:57.354Z,63.08
2017-11-23T20:23:23.727Z,62.95
2017-11-23T20:25:50.153Z,63.06
2017-11-23T20:28:16.568Z,63.18
2017-11-23T20:30:43.007Z,63.57
2017-11-23T20:33:09.444Z,63.75
2017-11-23T20:35:35.899Z,63.72
2017-11-23T20:38:02.272Z,63.85
2017-11-23T20:40:28.705Z,63.97
2017-11-23T20:42:55.134Z,63.88
2017-11-23T20:45:22.233Z,64.03
2017-11-23T20:47:48.715Z,63.59
2017-11-23T20:50:15.254Z,64.12
2017-11-23T20:52:41.641Z,63.65
2017-11-23T20:55:08.246Z,63.55
2017-11-23T20:57:34.787Z,63.10
2017-11-23T21:00:01.171Z,62.91
2017-11-23T21:02:27.671Z,62.85
2017-11-23T21:04:54.124Z,63.59
2017-11-23T21:07:20.534Z,62.97
2017-11-23T21:09:46.961Z,63.09
2017-11-23T21:12:13.386Z,62.82
2017-11-23T21:14:39.813Z,63.05
2017-11-23T21:17:06.255Z,63.05
2017-11-23T21:19:32.627Z,63.41
2017-11-23T21:21:58.996Z,63.55
2017-11-23T21:24:25.430Z,63.47
2017-11-23T21:26:51.781Z,63.09
2017-11-23T21:29:18.216Z,63.08
2017-11-23T21:31:44.611Z,63.78
2017-11-23T21:34:10.954Z,64.77
2017-11-23T21:36:37.317Z,63.75
2017-11-23T21:39:03.853Z,63.02
2017-11-23T21:41:30.201Z,63.02
2017-11-23T21:43:56.561Z,63.17
2017-11-23T21:46:22.945Z,62.82
2017-11-23T21:48:49.310Z,62.22
2017-11-23T21:51:15.686Z,62.29
2017-11-23T21:53:42.109Z,62.70
2017-11-23T21:56:08.474Z,63.22
2017-11-23T21:58:34.897Z,63.37
2017-11-23T22:01:01.286Z,63.63
2017-11-23T22:03:27.780Z,63.56
2017-11-23T22:05:54.177Z,63.36
2017-11-23T22:08:20.609Z,63.44
2017-11-23T22:10:46.954Z,63.55
2017-11-23T22:13:13.386Z,63.54
2017-11-23T22:15:39.769Z,63.40
2017-11-23T22:18:06.134Z,63.20
2017-11-23T22:20:32.518Z,63.15
2017-11-23T22:22:58.963Z,63.24
2017-11-23T22:25:25.314Z,63.56
2017-11-23T22:27:51.738Z,62.82
2017-11-23T22:30:18.166Z,63.08
2017-11-23T22:32:44.560Z,63.22
2017-11-23T22:35:10.930Z,63.28
2017-11-23T22:37:37.358Z,63.83
2017-11-23T22:40:03.745Z,63.91
2017-11-23T22:42:30.124Z,64.14
2017-11-23T22:44:56.568Z,64.21
2017-11-23T22:47:22.956Z,64.46
2017-11-23T22:49:49.313Z,64.41
2017-11-23T23:05:16.402Z,64.40
2017-11-23T23:07:42.794Z,63.51
2017-11-23T23:10:09.166Z,63.73
2017-11-23T23:12:35.591Z,64.02
2017-11-23T23:15:01.956Z,63.77
2017-11-23T23:17:28.318Z,63.33
2017-11-23T23:19:54.758Z,63.51
2017-11-23T23:22:21.148Z,63.46
2017-11-23T23:24:47.519Z,63.68
2017-11-23T23:27:13.941Z,63.31
2017-11-23T23:29:40.294Z,63.37
2017-11-23T23:32:06.710Z,63.80
2017-11-23T23:34:33.182Z,63.72
2017-11-23T23:36:59.561Z,63.88
2017-11-23T23:39:25.922Z,63.73
2017-11-23T23:41:52.307Z,63.84
2017-11-23T23:44:18.638Z,63.95
2017-11-23T23:46:44.986Z,64.40
2017-11-23T23:49:11.379Z,64.31
2017-11-23T23:51:37.941Z,64.32
2017-11-23T23:54:04.346Z,64.31
2017-11-23T23:56:30.753Z,64.08
2017-11-23T23:58:57.154Z,63.95
